Japan Airlines Virtual Airport Information Service

Hiroshima Airport

ICAO: RJOA Country: Japan
Latitude: 34.4361 Longitude: 132.919
Latest Arrival : ANA677 (RJTT-RJOA) Latest Departure : ANA672 (RJOA-RJTT)


WX CaptureLIVE
Data provided by noaa.gov | Fetched at 15:52:53

METAR : RJOA 041300Z 32002KT 9999 FEW020 BKN050 03/M02 Q1025

TAF : RJOA 041106Z 0412/0518 32004KT 9999 FEW025 SCT045 BECMG 0422/0500 15005KT BECMG 0509/0512 32005KT


Runway Data for RJOA
Data provided by openaviationdata.com

Runway ID Mag Var Hdg Length Elevation Surface ILS Freq ILS Id ILS Slope
10 -7 97° 9831 ft 1052 ft Asphalt 108.7 IHG 3
28 -7 277° 9831 ft 1052 ft Asphalt -- -- --

Hiroshima Airport, Japan
Use only for reference purposes



Not for navigational purposes.